LICA Airport Information

Runway Information
Runway 10 Length 7920 ft width 148 ft
Elevation 20 ft Threshold 348 ft Heading 99
Runway 28 Length 7920 ft Width 148 ft
Elevation 39 ft Threshold 351 ft Heading 279
Airport Frequencies
Type APP Name APP Frequency 118.8 MHZ
Type TWR Name TWR Frequency 119.7 MHZ
Airport Navaids
Type VOR-DME Name Lamezia Terme Frequency 112500 KHZ
Airport Weather Information & NOTAM
ADDS - METARS form results

(1004 UTC 16 November 2018)
Data provider http://aviationweather.gov/metar/data/
 
Forecast for: LICA (LAMEZIA TERME , IT)
Text: TAF LICA 160500Z 1606/1706 07010KT 9999 FEW030
Forecast period: 0600 UTC 16 November 2018 to 0600 UTC 17 November 2018
Forecast type: FROM: standard forecast or significant change
Winds: from the ENE (70 degrees) at 12 MPH (10 knots; 5.1 m/s)
Visibility: 6 or more miles 10+ km)
Ceiling: at least 12,000 feet AGL
Clouds: few clouds at 3000 feet AGL
Weather: no significant weather forecast for this period
Text: TEMPO 1612/1618 4000 TSRA
Forecast period: 1200 to 1800 UTC 16 November 2018
Forecast type: TEMPORARY: The following changes expected for less than half the time period
Visibility: 2.49 miles (4.01 km)
Ceiling: unknown
Clouds: missing
Weather: TSRA  (rain associated with thunderstorm(s))